ニューヨーク/JFK の空港の天気 - METARとTAF

ジョン・F・ケネディ国際空港 ( KJFK / JFK ) - アメリカ ニューヨーク州ニューヨーク
飛行場実況気象(Metar)
観測時間08/04 14:51 EDT (08/04 18:51 UTC)
風向・風速南東 5m/s
視程10km以上
天気現象
少しの雲 雲底高度 1010m
全天の8割程度の雲 雲底高度 2740m
全天の8割程度の雲 雲底高度 3350m
全天を覆う雲 雲底高度 7620m
気温22.8℃
湿度73%
気圧1020.8hPa
METARKJFK 041851Z 14010KT 10SM FEW033 BKN090 BKN110 OVC250 23/18 A3015 RMK AO2 SLP208 T02280178
過去の天気等 Google飛行場航空写真 Wunderground天気予報

過去48時間のMETAR

飛行場予報(TAF)
発表時間: 8/04 15:34 EDT (8/04 19:34 UTC)
予報対象時間: 4日16時 EDT ~ 5日20時 EDT
風向・風速東南東 5m/s
視程10km以上
全天の4割程度の雲 雲底高度 910m
全天を覆う雲 雲底高度 3050m
4日21時 EDT から
風向・風速北東 5m/s
視程10km以上
天気現象周辺でしゅう雨
全天を覆う雲 雲底高度 1070m
5日3時 EDT から
風向・風速北 5m/s
視程10km以上
天気現象周辺でしゅう雨
全天を覆う雲 雲底高度 760m
5日8時 EDT から
風向・風速北北東 4m/s
視程10km以上
全天を覆う雲 雲底高度 610m
5日14時 EDT から
風向・風速南東 3m/s
視程10km以上
全天の8割程度の雲 雲底高度 1220m
5日17時 EDT から
風向・風速南南東 4m/s
視程8050m
天気現象もや
全天の4割程度の雲 雲底高度 1830m
KJFK 041934Z 0420/0524 12010KT P6SM SCT030 OVC100
FM050100 05009KT P6SM VCSH OVC035
FM050700 01009KT P6SM VCSH OVC025
FM051200 03008KT P6SM OVC020
FM051800 13006KT P6SM BKN040
FM052100 16008KT 5SM BR SCT060